sensor_id;sensor_type;location;lat;lon;timestamp;pressure;altitude;pressure_sealevel;temperature;humidity
2397;BME280;1209;48.410;9.054;2023-02-13T00:00:26;98022.31;;;2.08;100.00
2397;BME280;1209;48.410;9.054;2023-02-13T00:02:51;98018.84;;;2.09;100.00
2397;BME280;1209;48.410;9.054;2023-02-13T00:05:17;98016.25;;;2.09;100.00
2397;BME280;1209;48.410;9.054;2023-02-13T00:07:42;98020.66;;;2.07;100.00
2397;BME280;1209;48.410;9.054;2023-02-13T00:10:08;98017.84;;;2.11;100.00
2397;BME280;1209;48.410;9.054;2023-02-13T00:12:34;98026.56;;;2.09;100.00
2397;BME280;1209;48.410;9.054;2023-02-13T00:14:59;98023.56;;;2.01;100.00
2397;BME280;1209;48.410;9.054;2023-02-13T00:17:25;98024.63;;;1.97;100.00
2397;BME280;1209;48.410;9.054;2023-02-13T00:19:50;98030.81;;;2.10;100.00
2397;BME280;1209;48.410;9.054;2023-02-13T00:22:16;98029.16;;;2.09;100.00
2397;BME280;1209;48.410;9.054;2023-02-13T00:24:41;98036.72;;;2.12;100.00
2397;BME280;1209;48.410;9.054;2023-02-13T00:27:07;98034.59;;;2.03;100.00
2397;BME280;1209;48.410;9.054;2023-02-13T00:29:32;98042.66;;;1.97;100.00
2397;BME280;1209;48.410;9.054;2023-02-13T00:31:57;98037.50;;;1.97;100.00
2397;BME280;1209;48.410;9.054;2023-02-13T00:34:24;98044.84;;;2.04;100.00
2397;BME280;1209;48.410;9.054;2023-02-13T00:36:49;98050.91;;;2.03;100.00
2397;BME280;1209;48.410;9.054;2023-02-13T00:39:14;98048.16;;;2.06;100.00
2397;BME280;1209;48.410;9.054;2023-02-13T00:41:39;98043.09;;;1.87;100.00
2397;BME280;1209;48.410;9.054;2023-02-13T00:44:05;98043.41;;;1.99;100.00
2397;BME280;1209;48.410;9.054;2023-02-13T00:46:30;98044.91;;;1.85;100.00
2397;BME280;1209;48.410;9.054;2023-02-13T00:48:55;98040.59;;;1.86;100.00
2397;BME280;1209;48.410;9.054;2023-02-13T00:51:20;98049.38;;;1.82;100.00
2397;BME280;1209;48.410;9.054;2023-02-13T00:53:46;98045.53;;;1.73;100.00
2397;BME280;1209;48.410;9.054;2023-02-13T00:56:11;98050.59;;;1.75;100.00
2397;BME280;1209;48.410;9.054;2023-02-13T00:58:37;98046.03;;;1.80;100.00
2397;BME280;1209;48.410;9.054;2023-02-13T01:01:02;98039.69;;;1.87;100.00
2397;BME280;1209;48.410;9.054;2023-02-13T01:03:28;98036.13;;;1.72;100.00
2397;BME280;1209;48.410;9.054;2023-02-13T01:05:55;98042.94;;;1.56;100.00
2397;BME280;1209;48.410;9.054;2023-02-13T01:08:20;98035.75;;;1.63;100.00
2397;BME280;1209;48.410;9.054;2023-02-13T01:10:47;98024.25;;;1.70;100.00
2397;BME280;1209;48.410;9.054;2023-02-13T01:13:13;98026.13;;;1.66;100.00
2397;BME280;1209;48.410;9.054;2023-02-13T01:15:39;98023.94;;;1.58;100.00
2397;BME280;1209;48.410;9.054;2023-02-13T01:18:05;98027.06;;;1.48;100.00
2397;BME280;1209;48.410;9.054;2023-02-13T01:20:30;98014.00;;;1.34;100.00
2397;BME280;1209;48.410;9.054;2023-02-13T01:22:56;98030.41;;;1.31;100.00
2397;BME280;1209;48.410;9.054;2023-02-13T01:25:22;98024.13;;;1.37;100.00
2397;BME280;1209;48.410;9.054;2023-02-13T01:27:47;98033.81;;;1.32;100.00
2397;BME280;1209;48.410;9.054;2023-02-13T01:30:14;98031.19;;;1.33;100.00
2397;BME280;1209;48.410;9.054;2023-02-13T01:32:40;98030.88;;;1.39;100.00
2397;BME280;1209;48.410;9.054;2023-02-13T01:35:07;98029.91;;;1.42;100.00
2397;BME280;1209;48.410;9.054;2023-02-13T01:37:33;98042.88;;;1.21;100.00
2397;BME280;1209;48.410;9.054;2023-02-13T01:39:58;98022.13;;;1.43;100.00
2397;BME280;1209;48.410;9.054;2023-02-13T01:42:26;98021.28;;;1.43;100.00
2397;BME280;1209;48.410;9.054;2023-02-13T01:44:57;98017.84;;;1.25;100.00
2397;BME280;1209;48.410;9.054;2023-02-13T01:47:37;98018.53;;;1.29;100.00
2397;BME280;1209;48.410;9.054;2023-02-13T01:52:46;98010.47;;;1.00;100.00
2397;BME280;1209;48.410;9.054;2023-02-13T01:55:13;98012.44;;;0.95;100.00
2397;BME280;1209;48.410;9.054;2023-02-13T01:57:41;98005.78;;;1.08;100.00
2397;BME280;1209;48.410;9.054;2023-02-13T02:00:12;98004.31;;;1.21;100.00
2397;BME280;1209;48.410;9.054;2023-02-13T02:02:42;98006.41;;;1.13;100.00
2397;BME280;1209;48.410;9.054;2023-02-13T02:05:09;97996.03;;;1.15;100.00
2397;BME280;1209;48.410;9.054;2023-02-13T02:07:37;98005.94;;;1.05;100.00
2397;BME280;1209;48.410;9.054;2023-02-13T02:10:10;98003.22;;;1.08;100.00
2397;BME280;1209;48.410;9.054;2023-02-13T02:12:43;97997.69;;;0.99;100.00
2397;BME280;1209;48.410;9.054;2023-02-13T02:15:11;97998.84;;;1.10;100.00
2397;BME280;1209;48.410;9.054;2023-02-13T02:17:36;98004.56;;;0.98;100.00
2397;BME280;1209;48.410;9.054;2023-02-13T02:20:18;98010.25;;;0.86;100.00
2397;BME280;1209;48.410;9.054;2023-02-13T02:34:24;98004.31;;;1.21;100.00
2397;BME280;1209;48.410;9.054;2023-02-13T02:39:44;98013.84;;;1.37;100.00
2397;BME280;1209;48.410;9.054;2023-02-13T02:42:27;98014.34;;;1.09;100.00
2397;BME280;1209;48.410;9.054;2023-02-13T02:45:04;98013.19;;;0.78;100.00
2397;BME280;1209;48.410;9.054;2023-02-13T02:50:55;98012.16;;;0.63;100.00
2397;BME280;1209;48.410;9.054;2023-02-13T02:53:34;98017.44;;;0.79;100.00
2397;BME280;1209;48.410;9.054;2023-02-13T02:56:03;98014.88;;;0.60;100.00
2397;BME280;1209;48.410;9.054;2023-02-13T02:58:42;98021.69;;;0.61;100.00
2397;BME280;1209;48.410;9.054;2023-02-13T03:01:29;98030.19;;;0.24;100.00
2397;BME280;1209;48.410;9.054;2023-02-13T03:04:23;98024.00;;;0.28;100.00
2397;BME280;1209;48.410;9.054;2023-02-13T03:07:10;98019.22;;;0.21;100.00
2397;BME280;1209;48.410;9.054;2023-02-13T03:09:41;98029.22;;;0.46;100.00
2397;BME280;1209;48.410;9.054;2023-02-13T03:12:32;98031.03;;;0.44;100.00
2397;BME280;1209;48.410;9.054;2023-02-13T03:15:20;98036.56;;;0.16;100.00
2397;BME280;1209;48.410;9.054;2023-02-13T03:17:46;98031.84;;;0.25;100.00
2397;BME280;1209;48.410;9.054;2023-02-13T03:21:07;98036.09;;;0.26;100.00
2397;BME280;1209;48.410;9.054;2023-02-13T03:23:59;98032.69;;;0.26;100.00
2397;BME280;1209;48.410;9.054;2023-02-13T03:27:00;98034.56;;;0.22;100.00
2397;BME280;1209;48.410;9.054;2023-02-13T03:32:29;98040.88;;;-0.05;100.00
2397;BME280;1209;48.410;9.054;2023-02-13T03:35:13;98044.66;;;-0.14;100.00
2397;BME280;1209;48.410;9.054;2023-02-13T03:38:04;98045.75;;;-0.19;100.00
2397;BME280;1209;48.410;9.054;2023-02-13T03:43:05;98043.44;;;-0.46;100.00
2397;BME280;1209;48.410;9.054;2023-02-13T03:45:36;98042.34;;;-0.40;100.00
2397;BME280;1209;48.410;9.054;2023-02-13T03:48:24;98043.19;;;-0.40;100.00
2397;BME280;1209;48.410;9.054;2023-02-13T03:51:11;98047.63;;;-0.43;100.00
2397;BME280;1209;48.410;9.054;2023-02-13T03:53:41;98060.44;;;-0.43;100.00
2397;BME280;1209;48.410;9.054;2023-02-13T03:56:10;98056.97;;;-0.42;100.00
2397;BME280;1209;48.410;9.054;2023-02-13T03:58:56;98053.25;;;-0.35;100.00
2397;BME280;1209;48.410;9.054;2023-02-13T04:01:40;98055.38;;;-0.45;100.00
2397;BME280;1209;48.410;9.054;2023-02-13T04:04:20;98051.41;;;-0.32;100.00
2397;BME280;1209;48.410;9.054;2023-02-13T04:06:54;98053.06;;;-0.30;100.00
2397;BME280;1209;48.410;9.054;2023-02-13T04:09:23;98052.94;;;-0.27;100.00
2397;BME280;1209;48.410;9.054;2023-02-13T04:11:57;98057.88;;;-0.43;100.00
2397;BME280;1209;48.410;9.054;2023-02-13T04:14:33;98063.16;;;-0.48;100.00
2397;BME280;1209;48.410;9.054;2023-02-13T04:17:05;98057.19;;;-0.48;100.00
2397;BME280;1209;48.410;9.054;2023-02-13T04:19:32;98066.81;;;-0.53;100.00
2397;BME280;1209;48.410;9.054;2023-02-13T04:22:00;98059.63;;;-0.66;100.00
2397;BME280;1209;48.410;9.054;2023-02-13T04:24:26;98063.34;;;-0.52;100.00
2397;BME280;1209;48.410;9.054;2023-02-13T04:26:52;98065.28;;;-0.57;100.00
2397;BME280;1209;48.410;9.054;2023-02-13T04:29:23;98065.03;;;-0.51;100.00
2397;BME280;1209;48.410;9.054;2023-02-13T04:31:48;98071.28;;;-0.58;100.00
2397;BME280;1209;48.410;9.054;2023-02-13T04:34:14;98073.44;;;-0.48;100.00
2397;BME280;1209;48.410;9.054;2023-02-13T04:36:40;98074.44;;;-0.52;100.00
2397;BME280;1209;48.410;9.054;2023-02-13T04:39:05;98069.25;;;-0.50;100.00
2397;BME280;1209;48.410;9.054;2023-02-13T04:41:30;98070.75;;;-0.45;100.00
2397;BME280;1209;48.410;9.054;2023-02-13T04:43:55;98074.16;;;-0.66;100.00
2397;BME280;1209;48.410;9.054;2023-02-13T04:46:21;98077.16;;;-0.77;100.00
2397;BME280;1209;48.410;9.054;2023-02-13T04:48:46;98080.38;;;-0.72;100.00
2397;BME280;1209;48.410;9.054;2023-02-13T04:51:12;98077.91;;;-0.53;100.00
2397;BME280;1209;48.410;9.054;2023-02-13T04:53:37;98079.94;;;-0.61;100.00
2397;BME280;1209;48.410;9.054;2023-02-13T04:56:02;98075.84;;;-0.65;100.00
2397;BME280;1209;48.410;9.054;2023-02-13T04:58:28;98072.09;;;-0.78;100.00
2397;BME280;1209;48.410;9.054;2023-02-13T05:00:54;98069.59;;;-0.80;100.00
2397;BME280;1209;48.410;9.054;2023-02-13T05:03:19;98073.03;;;-0.81;100.00
2397;BME280;1209;48.410;9.054;2023-02-13T05:05:44;98079.84;;;-0.80;100.00
2397;BME280;1209;48.410;9.054;2023-02-13T05:08:10;98077.09;;;-0.75;100.00
2397;BME280;1209;48.410;9.054;2023-02-13T05:10:35;98075.19;;;-0.70;100.00
2397;BME280;1209;48.410;9.054;2023-02-13T05:13:01;98073.47;;;-0.70;100.00
2397;BME280;1209;48.410;9.054;2023-02-13T05:15:27;98071.91;;;-0.74;100.00
2397;BME280;1209;48.410;9.054;2023-02-13T05:17:53;98076.84;;;-0.69;100.00
2397;BME280;1209;48.410;9.054;2023-02-13T05:20:18;98083.19;;;-0.78;100.00
2397;BME280;1209;48.410;9.054;2023-02-13T05:22:45;98078.94;;;-0.79;100.00
2397;BME280;1209;48.410;9.054;2023-02-13T05:25:31;98076.69;;;-0.86;100.00
2397;BME280;1209;48.410;9.054;2023-02-13T05:27:56;98075.03;;;-0.87;100.00
2397;BME280;1209;48.410;9.054;2023-02-13T05:30:22;98073.69;;;-0.76;100.00
2397;BME280;1209;48.410;9.054;2023-02-13T05:32:47;98079.72;;;-0.77;100.00
2397;BME280;1209;48.410;9.054;2023-02-13T05:35:15;98073.97;;;-0.61;100.00
2397;BME280;1209;48.410;9.054;2023-02-13T05:37:40;98070.34;;;-0.56;100.00
2397;BME280;1209;48.410;9.054;2023-02-13T05:40:06;98069.25;;;-0.50;100.00
2397;BME280;1209;48.410;9.054;2023-02-13T05:42:31;98070.53;;;-0.60;100.00
2397;BME280;1209;48.410;9.054;2023-02-13T05:44:56;98073.03;;;-0.59;100.00
2397;BME280;1209;48.410;9.054;2023-02-13T05:47:22;98070.59;;;-0.62;100.00
2397;BME280;1209;48.410;9.054;2023-02-13T05:49:47;98070.53;;;-0.60;100.00
2397;BME280;1209;48.410;9.054;2023-02-13T05:52:12;98069.69;;;-0.61;100.00
2397;BME280;1209;48.410;9.054;2023-02-13T05:54:38;98065.38;;;-0.60;100.00
2397;BME280;1209;48.410;9.054;2023-02-13T05:57:03;98064.38;;;-0.56;100.00
2397;BME280;1209;48.410;9.054;2023-02-13T05:59:28;98067.75;;;-0.76;100.00
2397;BME280;1209;48.410;9.054;2023-02-13T06:01:54;98064.81;;;-0.67;100.00
2397;BME280;1209;48.410;9.054;2023-02-13T06:04:19;98067.56;;;-0.72;100.00
2397;BME280;1209;48.410;9.054;2023-02-13T06:06:44;98065.00;;;-0.72;100.00
2397;BME280;1209;48.410;9.054;2023-02-13T06:09:10;98064.38;;;-0.56;100.00
2397;BME280;1209;48.410;9.054;2023-02-13T06:11:35;98071.59;;;-0.44;100.00
2397;BME280;1209;48.410;9.054;2023-02-13T06:14:00;98072.38;;;-0.42;100.00
2397;BME280;1209;48.410;9.054;2023-02-13T06:16:26;98073.56;;;-0.51;100.00
2397;BME280;1209;48.410;9.054;2023-02-13T06:18:51;98083.28;;;-0.37;100.00
2397;BME280;1209;48.410;9.054;2023-02-13T06:21:17;98077.19;;;-0.35;100.00
2397;BME280;1209;48.410;9.054;2023-02-13T06:23:42;98076.72;;;-0.44;100.00
2397;BME280;1209;48.410;9.054;2023-02-13T06:26:07;98076.78;;;-0.46;100.00
2397;BME280;1209;48.410;9.054;2023-02-13T06:28:33;98083.53;;;-0.43;100.00
2397;BME280;1209;48.410;9.054;2023-02-13T06:30:59;98082.97;;;-0.51;100.00
2397;BME280;1209;48.410;9.054;2023-02-13T06:33:25;98084.72;;;-0.52;100.00
2397;BME280;1209;48.410;9.054;2023-02-13T06:35:50;98081.19;;;-0.49;100.00
2397;BME280;1209;48.410;9.054;2023-02-13T06:38:16;98085.78;;;-0.36;100.00
2397;BME280;1209;48.410;9.054;2023-02-13T06:40:46;98081.81;;;-0.65;100.00
2397;BME280;1209;48.410;9.054;2023-02-13T06:43:11;98085.78;;;-0.57;100.00
2397;BME280;1209;48.410;9.054;2023-02-13T06:45:37;98085.38;;;-0.47;100.00
2397;BME280;1209;48.410;9.054;2023-02-13T06:48:02;98095.47;;;-0.42;100.00
2397;BME280;1209;48.410;9.054;2023-02-13T06:50:28;98091.03;;;-0.39;100.00
2397;BME280;1209;48.410;9.054;2023-02-13T06:52:53;98096.13;;;-0.37;100.00
2397;BME280;1209;48.410;9.054;2023-02-13T06:55:19;98098.56;;;-0.34;100.00
2397;BME280;1209;48.410;9.054;2023-02-13T06:57:45;98105.84;;;-0.45;100.00
2397;BME280;1209;48.410;9.054;2023-02-13T07:00:12;98099.94;;;-0.47;100.00
2397;BME280;1209;48.410;9.054;2023-02-13T07:02:39;98107.09;;;-0.55;100.00
2397;BME280;1209;48.410;9.054;2023-02-13T07:05:05;98101.72;;;-0.49;100.00
2397;BME280;1209;48.410;9.054;2023-02-13T07:07:34;98107.59;;;-0.46;100.00
2397;BME280;1209;48.410;9.054;2023-02-13T07:10:00;98110.69;;;-0.38;100.00
2397;BME280;1209;48.410;9.054;2023-02-13T07:12:25;98112.16;;;-0.32;100.00
2397;BME280;1209;48.410;9.054;2023-02-13T07:14:51;98111.31;;;-0.33;100.00
2397;BME280;1209;48.410;9.054;2023-02-13T07:17:16;98113.75;;;-0.29;100.00
2397;BME280;1209;48.410;9.054;2023-02-13T07:19:41;98117.69;;;-0.21;100.00
2397;BME280;1209;48.410;9.054;2023-02-13T07:22:07;98115.13;;;-0.21;100.00
2397;BME280;1209;48.410;9.054;2023-02-13T07:24:32;98117.63;;;-0.19;100.00
2397;BME280;1209;48.410;9.054;2023-02-13T07:26:59;98119.03;;;-0.12;100.00
2397;BME280;1209;48.410;9.054;2023-02-13T07:29:25;98117.50;;;-0.16;100.00
2397;BME280;1209;48.410;9.054;2023-02-13T07:31:50;98120.84;;;-0.14;100.00
2397;BME280;1209;48.410;9.054;2023-02-13T07:34:15;98127.50;;;-0.10;100.00
2397;BME280;1209;48.410;9.054;2023-02-13T07:36:41;98126.28;;;-0.02;100.00
2397;BME280;1209;48.410;9.054;2023-02-13T07:39:06;98129.88;;;-0.06;100.00
2397;BME280;1209;48.410;9.054;2023-02-13T07:41:32;98121.41;;;-0.08;100.00
2397;BME280;1209;48.410;9.054;2023-02-13T07:43:57;98128.41;;;-0.11;100.00
2397;BME280;1209;48.410;9.054;2023-02-13T07:46:22;98132.59;;;-0.09;100.00
2397;BME280;1209;48.410;9.054;2023-02-13T07:48:47;98127.50;;;-0.10;100.00
2397;BME280;1209;48.410;9.054;2023-02-13T07:51:15;98138.38;;;-0.04;100.00
2397;BME280;1209;48.410;9.054;2023-02-13T07:53:40;98124.97;;;0.10;100.00
2397;BME280;1209;48.410;9.054;2023-02-13T07:56:06;98129.22;;;0.11;100.00
2397;BME280;1209;48.410;9.054;2023-02-13T07:58:32;98128.06;;;0.18;100.00
2397;BME280;1209;48.410;9.054;2023-02-13T08:00:58;98134.09;;;0.17;100.00
2397;BME280;1209;48.410;9.054;2023-02-13T08:03:23;98129.41;;;0.27;100.00
2397;BME280;1209;48.410;9.054;2023-02-13T08:05:48;98128.56;;;0.26;100.00
2397;BME280;1209;48.410;9.054;2023-02-13T08:08:15;98130.16;;;0.29;100.00
2397;BME280;1209;48.410;9.054;2023-02-13T08:10:40;98130.88;;;0.32;100.00
2397;BME280;1209;48.410;9.054;2023-02-13T08:13:24;98127.84;;;0.43;100.00
2397;BME280;1209;48.410;9.054;2023-02-13T08:15:49;98139.28;;;0.56;100.00
2397;BME280;1209;48.410;9.054;2023-02-13T08:18:15;98137.97;;;0.67;100.00
2397;BME280;1209;48.410;9.054;2023-02-13T08:20:40;98129.66;;;0.80;100.00
2397;BME280;1209;48.410;9.054;2023-02-13T08:23:08;98130.72;;;0.95;100.00
2397;BME280;1209;48.410;9.054;2023-02-13T08:25:33;98137.97;;;1.06;100.00
2397;BME280;1209;48.410;9.054;2023-02-13T08:27:59;98130.66;;;1.15;100.00
2397;BME280;1209;48.410;9.054;2023-02-13T08:30:25;98135.03;;;1.13;100.00
2397;BME280;1209;48.410;9.054;2023-02-13T08:32:51;98133.81;;;1.39;100.00
2397;BME280;1209;48.410;9.054;2023-02-13T08:35:16;98135.84;;;1.51;100.00
2397;BME280;1209;48.410;9.054;2023-02-13T08:37:41;98139.34;;;1.68;100.00
2397;BME280;1209;48.410;9.054;2023-02-13T08:40:07;98134.97;;;1.87;100.00
2397;BME280;1209;48.410;9.054;2023-02-13T08:42:36;98143.47;;;1.89;100.00
2397;BME280;1209;48.410;9.054;2023-02-13T08:45:02;98134.03;;;2.07;100.00
2397;BME280;1209;48.410;9.054;2023-02-13T08:47:27;98136.75;;;2.04;100.00
2397;BME280;1209;48.410;9.054;2023-02-13T08:49:53;98130.97;;;2.16;100.00
2397;BME280;1209;48.410;9.054;2023-02-13T08:52:18;98125.50;;;2.57;100.00
2397;BME280;1209;48.410;9.054;2023-02-13T08:54:43;98120.63;;;2.83;100.00
2397;BME280;1209;48.410;9.054;2023-02-13T08:57:09;98113.94;;;3.28;100.00
2397;BME280;1209;48.410;9.054;2023-02-13T08:59:34;98122.59;;;3.59;100.00
2397;BME280;1209;48.410;9.054;2023-02-13T09:01:59;98124.31;;;3.74;100.00
2397;BME280;1209;48.410;9.054;2023-02-13T09:04:25;98114.75;;;4.06;100.00
2397;BME280;1209;48.410;9.054;2023-02-13T09:06:50;98116.56;;;3.90;100.00
2397;BME280;1209;48.410;9.054;2023-02-13T09:09:15;98114.34;;;4.28;100.00
2397;BME280;1209;48.410;9.054;2023-02-13T09:11:41;98109.38;;;4.53;100.00
2397;BME280;1209;48.410;9.054;2023-02-13T09:14:06;98112.91;;;4.95;100.00
2397;BME280;1209;48.410;9.054;2023-02-13T09:16:31;98114.44;;;5.26;100.00
2397;BME280;1209;48.410;9.054;2023-02-13T09:18:57;98118.28;;;5.47;100.00
2397;BME280;1209;48.410;9.054;2023-02-13T09:21:22;98101.84;;;5.61;100.00
2397;BME280;1209;48.410;9.054;2023-02-13T09:23:48;98100.28;;;5.58;100.00
2397;BME280;1209;48.410;9.054;2023-02-13T09:26:14;98097.34;;;6.04;100.00
2397;BME280;1209;48.410;9.054;2023-02-13T09:28:40;98101.28;;;5.70;100.00
2397;BME280;1209;48.410;9.054;2023-02-13T09:31:10;98099.06;;;6.43;100.00
2397;BME280;1209;48.410;9.054;2023-02-13T09:33:36;98091.06;;;6.34;100.00
2397;BME280;1209;48.410;9.054;2023-02-13T09:36:03;98093.13;;;6.28;100.00
2397;BME280;1209;48.410;9.054;2023-02-13T09:38:29;98087.94;;;6.54;100.00
2397;BME280;1209;48.410;9.054;2023-02-13T09:43:51;98087.44;;;6.74;100.00
2397;BME280;1209;48.410;9.054;2023-02-13T09:46:21;98094.66;;;6.94;100.00
2397;BME280;1209;48.410;9.054;2023-02-13T09:48:50;98088.00;;;7.16;100.00
2397;BME280;1209;48.410;9.054;2023-02-13T09:51:19;98086.84;;;7.20;100.00
2397;BME280;1209;48.410;9.054;2023-02-13T09:53:51;98095.91;;;7.14;100.00
2397;BME280;1209;48.410;9.054;2023-02-13T09:56:22;98098.09;;;7.68;100.00
2397;BME280;1209;48.410;9.054;2023-02-13T09:59:02;98091.78;;;8.07;100.00
2397;BME280;1209;48.410;9.054;2023-02-13T10:01:33;98091.94;;;7.93;100.00
2397;BME280;1209;48.410;9.054;2023-02-13T10:04:13;98091.22;;;7.91;100.00
2397;BME280;1209;48.410;9.054;2023-02-13T10:06:45;98099.47;;;7.85;100.00
2397;BME280;1209;48.410;9.054;2023-02-13T10:09:43;98097.06;;;7.34;100.00
2397;BME280;1209;48.410;9.054;2023-02-13T10:12:18;98102.13;;;7.48;100.00
2397;BME280;1209;48.410;9.054;2023-02-13T10:15:02;98105.72;;;8.06;100.00
2397;BME280;1209;48.410;9.054;2023-02-13T10:17:38;98099.53;;;7.72;100.00
2397;BME280;1209;48.410;9.054;2023-02-13T10:20:19;98099.31;;;7.02;100.00
2397;BME280;1209;48.410;9.054;2023-02-13T10:22:51;98099.91;;;6.69;100.00
2397;BME280;1209;48.410;9.054;2023-02-13T10:25:23;98099.59;;;6.74;100.00
2397;BME280;1209;48.410;9.054;2023-02-13T10:27:54;98095.25;;;7.23;100.00
2397;BME280;1209;48.410;9.054;2023-02-13T10:30:32;98101.34;;;7.35;100.00
2397;BME280;1209;48.410;9.054;2023-02-13T10:33:00;98100.38;;;7.12;100.00
2397;BME280;1209;48.410;9.054;2023-02-13T10:36:00;98109.09;;;6.99;100.00
2397;BME280;1209;48.410;9.054;2023-02-13T10:38:29;98108.75;;;7.29;100.00
2397;BME280;1209;48.410;9.054;2023-02-13T10:41:09;98105.69;;;7.11;100.00
2397;BME280;1209;48.410;9.054;2023-02-13T10:46:36;98099.66;;;7.10;100.00
2397;BME280;1209;48.410;9.054;2023-02-13T10:49:30;98099.28;;;6.78;100.00
2397;BME280;1209;48.410;9.054;2023-02-13T10:55:45;98094.81;;;6.68;100.00
2397;BME280;1209;48.410;9.054;2023-02-13T10:58:07;98097.28;;;6.82;100.00
2397;BME280;1209;48.410;9.054;2023-02-13T11:00:37;98090.16;;;7.09;100.00
2397;BME280;1209;48.410;9.054;2023-02-13T11:03:15;98086.00;;;6.70;100.00
2397;BME280;1209;48.410;9.054;2023-02-13T11:05:42;98088.31;;;7.11;100.00
2397;BME280;1209;48.410;9.054;2023-02-13T11:08:31;98080.66;;;6.97;100.00
2397;BME280;1209;48.410;9.054;2023-02-13T11:10:57;98088.94;;;7.02;100.00
2397;BME280;1209;48.410;9.054;2023-02-13T11:13:24;98077.34;;;7.32;100.00
2397;BME280;1209;48.410;9.054;2023-02-13T11:16:05;98081.50;;;7.34;100.00
2397;BME280;1209;48.410;9.054;2023-02-13T11:18:34;98070.53;;;7.05;100.00
2397;BME280;1209;48.410;9.054;2023-02-13T11:21:20;98082.81;;;7.16;100.00
2397;BME280;1209;48.410;9.054;2023-02-13T11:23:51;98083.09;;;7.24;100.00
2397;BME280;1209;48.410;9.054;2023-02-13T11:26:30;98067.28;;;7.51;100.00
2397;BME280;1209;48.410;9.054;2023-02-13T11:28:59;98072.78;;;7.59;100.00
2397;BME280;1209;48.410;9.054;2023-02-13T11:31:30;98065.94;;;7.45;100.00
2397;BME280;1209;48.410;9.054;2023-02-13T11:33:58;98061.91;;;7.41;100.00
2397;BME280;1209;48.410;9.054;2023-02-13T11:36:32;98064.47;;;7.30;100.00
2397;BME280;1209;48.410;9.054;2023-02-13T11:39:06;98060.41;;;7.50;100.00
2397;BME280;1209;48.410;9.054;2023-02-13T11:41:42;98070.00;;;7.49;100.00
2397;BME280;1209;48.410;9.054;2023-02-13T11:46:48;98068.09;;;7.51;100.00
2397;BME280;1209;48.410;9.054;2023-02-13T11:51:46;98051.97;;;7.35;100.00
2397;BME280;1209;48.410;9.054;2023-02-13T11:56:58;98051.56;;;7.29;100.00
2397;BME280;1209;48.410;9.054;2023-02-13T11:59:26;98052.34;;;7.42;100.00
2397;BME280;1209;48.410;9.054;2023-02-13T12:02:15;98047.25;;;7.40;100.00
2397;BME280;1209;48.410;9.054;2023-02-13T12:04:41;98048.84;;;7.54;100.00
2397;BME280;1209;48.410;9.054;2023-02-13T12:09:47;98049.31;;;7.72;100.00
2397;BME280;1209;48.410;9.054;2023-02-13T12:12:18;98044.66;;;7.64;100.00
2397;BME280;1209;48.410;9.054;2023-02-13T12:14:46;98042.09;;;7.75;100.00
2397;BME280;1209;48.410;9.054;2023-02-13T12:17:15;98044.34;;;7.69;100.00
2397;BME280;1209;48.410;9.054;2023-02-13T12:19:44;98036.28;;;7.61;100.00
2397;BME280;1209;48.410;9.054;2023-02-13T12:25:26;98047.91;;;7.79;100.00
2397;BME280;1209;48.410;9.054;2023-02-13T12:31:38;98042.25;;;7.85;100.00
2397;BME280;1209;48.410;9.054;2023-02-13T12:36:48;98043.09;;;7.85;100.00
2397;BME280;1209;48.410;9.054;2023-02-13T12:39:35;98041.41;;;7.73;100.00
2397;BME280;1209;48.410;9.054;2023-02-13T12:50:49;98031.25;;;8.28;100.00
2397;BME280;1209;48.410;9.054;2023-02-13T12:53:39;98020.94;;;8.26;100.00
2397;BME280;1209;48.410;9.054;2023-02-13T12:56:14;98028.28;;;8.21;100.00
2397;BME280;1209;48.410;9.054;2023-02-13T12:58:54;98030.78;;;8.23;100.00
2397;BME280;1209;48.410;9.054;2023-02-13T13:06:30;98027.69;;;8.29;100.00
2397;BME280;1209;48.410;9.054;2023-02-13T13:14:41;98020.16;;;8.37;100.00
2397;BME280;1209;48.410;9.054;2023-02-13T13:17:16;98012.59;;;8.45;100.00
2397;BME280;1209;48.410;9.054;2023-02-13T13:20:28;98015.47;;;8.53;100.00
2397;BME280;1209;48.410;9.054;2023-02-13T13:23:07;98009.19;;;8.56;100.00
2397;BME280;1209;48.410;9.054;2023-02-13T13:28:12;98015.69;;;8.61;100.00
2397;BME280;1209;48.410;9.054;2023-02-13T13:30:40;98007.75;;;8.63;100.00
2397;BME280;1209;48.410;9.054;2023-02-13T13:38:23;98002.53;;;8.40;100.00
2397;BME280;1209;48.410;9.054;2023-02-13T13:41:07;98007.53;;;8.55;100.00
2397;BME280;1209;48.410;9.054;2023-02-13T13:51:40;98009.53;;;8.62;100.00
2397;BME280;1209;48.410;9.054;2023-02-13T14:02:26;98003.84;;;8.68;100.00
2397;BME280;1209;48.410;9.054;2023-02-13T14:05:31;98015.09;;;8.69;100.00
2397;BME280;1209;48.410;9.054;2023-02-13T14:07:59;98004.91;;;8.66;100.00
2397;BME280;1209;48.410;9.054;2023-02-13T14:31:27;98005.38;;;8.82;100.00
2397;BME280;1209;48.410;9.054;2023-02-13T14:33:58;98010.44;;;8.95;100.00
2397;BME280;1209;48.410;9.054;2023-02-13T14:36:32;98011.13;;;9.08;100.00
2397;BME280;1209;48.410;9.054;2023-02-13T14:39:33;98012.34;;;8.93;100.00
2397;BME280;1209;48.410;9.054;2023-02-13T14:42:24;98010.06;;;9.10;100.00
2397;BME280;1209;48.410;9.054;2023-02-13T14:44:57;98008.31;;;8.89;100.00
2397;BME280;1209;48.410;9.054;2023-02-13T14:47:36;98006.31;;;8.81;100.00
2397;BME280;1209;48.410;9.054;2023-02-13T14:50:05;98000.38;;;9.01;100.00
2397;BME280;1209;48.410;9.054;2023-02-13T14:52:33;97996.25;;;8.99;100.00
2397;BME280;1209;48.410;9.054;2023-02-13T14:55:02;98004.41;;;9.05;100.00
2397;BME280;1209;48.410;9.054;2023-02-13T14:57:30;97998.59;;;9.02;100.00
2397;BME280;1209;48.410;9.054;2023-02-13T15:00:49;97998.13;;;8.86;100.00
2397;BME280;1209;48.410;9.054;2023-02-13T15:02:58;97991.25;;;8.96;100.00
2397;BME280;1209;48.410;9.054;2023-02-13T15:05:31;97991.84;;;8.99;100.00
2397;BME280;1209;48.410;9.054;2023-02-13T15:08:13;97991.16;;;8.86;100.00
2397;BME280;1209;48.410;9.054;2023-02-13T15:10:45;97995.63;;;8.95;100.00
2397;BME280;1209;48.410;9.054;2023-02-13T15:13:25;97991.72;;;8.90;100.00
2397;BME280;1209;48.410;9.054;2023-02-13T15:16:00;97989.00;;;9.02;100.00
2397;BME280;1209;48.410;9.054;2023-02-13T15:18:30;97988.19;;;8.79;100.00
2397;BME280;1209;48.410;9.054;2023-02-13T15:20:58;97992.44;;;9.03;100.00
2397;BME280;1209;48.410;9.054;2023-02-13T15:23:30;97987.97;;;8.71;100.00
2397;BME280;1209;48.410;9.054;2023-02-13T15:25:58;97986.97;;;8.95;100.00
2397;BME280;1209;48.410;9.054;2023-02-13T15:28:25;97987.50;;;9.32;100.00
2397;BME280;1209;48.410;9.054;2023-02-13T15:30:56;97992.06;;;9.51;100.00
2397;BME280;1209;48.410;9.054;2023-02-13T15:33:24;97987.19;;;9.78;100.00